sensor_id;sensor_type;location;lat;lon;timestamp;temperature;humidity
37642;DHT22;23486;51.956;5.888;2023-08-24T00:01:15;18.50;99.90
37642;DHT22;23486;51.956;5.888;2023-08-24T00:03:45;18.60;99.90
37642;DHT22;23486;51.956;5.888;2023-08-24T00:06:14;18.60;99.90
37642;DHT22;23486;51.956;5.888;2023-08-24T00:08:39;18.50;99.90
37642;DHT22;23486;51.956;5.888;2023-08-24T00:11:05;18.50;99.90
37642;DHT22;23486;51.956;5.888;2023-08-24T00:13:31;18.60;99.90
37642;DHT22;23486;51.956;5.888;2023-08-24T00:15:57;18.50;99.90
37642;DHT22;23486;51.956;5.888;2023-08-24T00:18:24;18.50;99.90
37642;DHT22;23486;51.956;5.888;2023-08-24T00:20:50;18.50;99.90
37642;DHT22;23486;51.956;5.888;2023-08-24T00:23:16;18.50;99.90
37642;DHT22;23486;51.956;5.888;2023-08-24T00:25:41;18.50;99.90
37642;DHT22;23486;51.956;5.888;2023-08-24T00:28:07;18.50;99.90
37642;DHT22;23486;51.956;5.888;2023-08-24T00:30:33;18.50;99.90
37642;DHT22;23486;51.956;5.888;2023-08-24T00:32:58;18.50;99.90
37642;DHT22;23486;51.956;5.888;2023-08-24T00:35:24;18.50;99.90
37642;DHT22;23486;51.956;5.888;2023-08-24T00:37:50;18.50;99.90
37642;DHT22;23486;51.956;5.888;2023-08-24T00:40:16;18.50;99.90
37642;DHT22;23486;51.956;5.888;2023-08-24T00:42:44;18.50;99.90
37642;DHT22;23486;51.956;5.888;2023-08-24T00:45:11;18.50;99.90
37642;DHT22;23486;51.956;5.888;2023-08-24T00:47:40;18.40;99.90
37642;DHT22;23486;51.956;5.888;2023-08-24T00:50:10;18.40;99.90
37642;DHT22;23486;51.956;5.888;2023-08-24T00:52:40;18.40;99.90
37642;DHT22;23486;51.956;5.888;2023-08-24T00:55:07;18.40;99.90
37642;DHT22;23486;51.956;5.888;2023-08-24T00:57:33;18.40;99.90
37642;DHT22;23486;51.956;5.888;2023-08-24T01:00:03;18.40;99.90
37642;DHT22;23486;51.956;5.888;2023-08-24T01:02:31;18.40;99.90
37642;DHT22;23486;51.956;5.888;2023-08-24T01:04:58;18.40;99.90
37642;DHT22;23486;51.956;5.888;2023-08-24T01:07:24;18.40;99.90
37642;DHT22;23486;51.956;5.888;2023-08-24T01:09:50;18.40;99.90
37642;DHT22;23486;51.956;5.888;2023-08-24T01:12:52;18.40;99.90
37642;DHT22;23486;51.956;5.888;2023-08-24T01:15:15;18.40;99.90
37642;DHT22;23486;51.956;5.888;2023-08-24T01:17:43;18.40;99.90
37642;DHT22;23486;51.956;5.888;2023-08-24T01:20:10;18.40;99.90
37642;DHT22;23486;51.956;5.888;2023-08-24T01:22:49;18.40;99.90
37642;DHT22;23486;51.956;5.888;2023-08-24T01:25:38;18.40;99.90
37642;DHT22;23486;51.956;5.888;2023-08-24T01:28:06;18.40;99.90
37642;DHT22;23486;51.956;5.888;2023-08-24T01:30:34;18.40;99.90
37642;DHT22;23486;51.956;5.888;2023-08-24T01:33:03;18.40;99.90
37642;DHT22;23486;51.956;5.888;2023-08-24T01:35:37;18.30;99.90
37642;DHT22;23486;51.956;5.888;2023-08-24T01:38:03;18.30;99.90
37642;DHT22;23486;51.956;5.888;2023-08-24T01:43:18;18.30;99.90
37642;DHT22;23486;51.956;5.888;2023-08-24T01:45:46;18.30;99.90
37642;DHT22;23486;51.956;5.888;2023-08-24T01:48:12;18.30;99.90
37642;DHT22;23486;51.956;5.888;2023-08-24T01:50:39;18.30;99.90
37642;DHT22;23486;51.956;5.888;2023-08-24T01:53:05;18.30;99.90
37642;DHT22;23486;51.956;5.888;2023-08-24T01:55:31;18.40;99.90
37642;DHT22;23486;51.956;5.888;2023-08-24T01:57:57;18.40;99.90
37642;DHT22;23486;51.956;5.888;2023-08-24T02:00:23;18.40;99.90
37642;DHT22;23486;51.956;5.888;2023-08-24T02:02:49;18.40;99.90
37642;DHT22;23486;51.956;5.888;2023-08-24T02:05:14;18.40;99.90
37642;DHT22;23486;51.956;5.888;2023-08-24T02:07:40;18.40;99.90
37642;DHT22;23486;51.956;5.888;2023-08-24T02:10:06;18.40;99.90
37642;DHT22;23486;51.956;5.888;2023-08-24T02:12:32;18.50;99.90
37642;DHT22;23486;51.956;5.888;2023-08-24T02:14:58;18.50;99.90
37642;DHT22;23486;51.956;5.888;2023-08-24T02:17:24;18.50;99.90
37642;DHT22;23486;51.956;5.888;2023-08-24T02:19:51;18.50;99.90
37642;DHT22;23486;51.956;5.888;2023-08-24T02:22:18;18.50;99.90
37642;DHT22;23486;51.956;5.888;2023-08-24T02:24:43;18.50;99.90
37642;DHT22;23486;51.956;5.888;2023-08-24T02:27:09;18.50;99.90
37642;DHT22;23486;51.956;5.888;2023-08-24T02:29:34;18.60;99.90
37642;DHT22;23486;51.956;5.888;2023-08-24T02:32:00;18.60;99.90
37642;DHT22;23486;51.956;5.888;2023-08-24T02:34:26;18.60;99.90
37642;DHT22;23486;51.956;5.888;2023-08-24T02:36:52;18.60;99.90
37642;DHT22;23486;51.956;5.888;2023-08-24T02:39:17;18.60;99.90
37642;DHT22;23486;51.956;5.888;2023-08-24T02:41:43;18.60;99.90
37642;DHT22;23486;51.956;5.888;2023-08-24T02:44:08;18.60;99.90
37642;DHT22;23486;51.956;5.888;2023-08-24T02:46:34;18.50;99.90
37642;DHT22;23486;51.956;5.888;2023-08-24T02:49:00;18.50;99.90
37642;DHT22;23486;51.956;5.888;2023-08-24T02:51:25;18.50;99.90
37642;DHT22;23486;51.956;5.888;2023-08-24T02:53:51;18.50;99.90
37642;DHT22;23486;51.956;5.888;2023-08-24T02:56:17;18.50;99.90
37642;DHT22;23486;51.956;5.888;2023-08-24T02:58:42;18.50;99.90
37642;DHT22;23486;51.956;5.888;2023-08-24T03:01:08;18.50;99.90
37642;DHT22;23486;51.956;5.888;2023-08-24T03:03:35;18.50;99.90
37642;DHT22;23486;51.956;5.888;2023-08-24T03:06:06;18.40;99.90
37642;DHT22;23486;51.956;5.888;2023-08-24T03:08:33;18.40;99.90
37642;DHT22;23486;51.956;5.888;2023-08-24T03:11:00;18.30;99.90
37642;DHT22;23486;51.956;5.888;2023-08-24T03:13:27;18.30;99.90
37642;DHT22;23486;51.956;5.888;2023-08-24T03:15:53;18.30;99.90
37642;DHT22;23486;51.956;5.888;2023-08-24T03:18:19;18.20;99.90
37642;DHT22;23486;51.956;5.888;2023-08-24T03:20:46;18.20;99.90
37642;DHT22;23486;51.956;5.888;2023-08-24T03:23:12;18.20;99.90
37642;DHT22;23486;51.956;5.888;2023-08-24T03:25:39;18.20;99.90
37642;DHT22;23486;51.956;5.888;2023-08-24T03:28:06;18.10;99.90
37642;DHT22;23486;51.956;5.888;2023-08-24T03:30:34;18.10;99.90
37642;DHT22;23486;51.956;5.888;2023-08-24T03:33:00;18.10;99.90
37642;DHT22;23486;51.956;5.888;2023-08-24T03:35:29;18.00;99.90
37642;DHT22;23486;51.956;5.888;2023-08-24T03:37:55;18.00;99.90
37642;DHT22;23486;51.956;5.888;2023-08-24T03:40:21;18.00;99.90
37642;DHT22;23486;51.956;5.888;2023-08-24T03:42:47;18.00;99.90
37642;DHT22;23486;51.956;5.888;2023-08-24T03:45:12;17.90;99.90
37642;DHT22;23486;51.956;5.888;2023-08-24T03:47:38;17.80;99.90
37642;DHT22;23486;51.956;5.888;2023-08-24T03:50:04;17.80;99.90
37642;DHT22;23486;51.956;5.888;2023-08-24T03:52:29;17.80;99.90
37642;DHT22;23486;51.956;5.888;2023-08-24T03:54:56;17.80;99.90
37642;DHT22;23486;51.956;5.888;2023-08-24T03:57:22;17.80;99.90
37642;DHT22;23486;51.956;5.888;2023-08-24T03:59:48;17.80;99.90
37642;DHT22;23486;51.956;5.888;2023-08-24T04:02:14;17.70;99.90
37642;DHT22;23486;51.956;5.888;2023-08-24T04:04:40;17.70;99.90
37642;DHT22;23486;51.956;5.888;2023-08-24T04:07:05;17.70;99.90
37642;DHT22;23486;51.956;5.888;2023-08-24T04:09:31;17.70;99.90
37642;DHT22;23486;51.956;5.888;2023-08-24T04:11:56;17.70;99.90
37642;DHT22;23486;51.956;5.888;2023-08-24T04:14:22;17.60;99.90
37642;DHT22;23486;51.956;5.888;2023-08-24T04:16:48;17.60;99.90
37642;DHT22;23486;51.956;5.888;2023-08-24T04:19:13;17.60;99.90
37642;DHT22;23486;51.956;5.888;2023-08-24T04:21:39;17.60;99.90
37642;DHT22;23486;51.956;5.888;2023-08-24T04:24:05;17.50;99.90
37642;DHT22;23486;51.956;5.888;2023-08-24T04:26:31;17.50;99.90
37642;DHT22;23486;51.956;5.888;2023-08-24T04:28:56;17.50;99.90
37642;DHT22;23486;51.956;5.888;2023-08-24T04:31:22;17.40;99.90
37642;DHT22;23486;51.956;5.888;2023-08-24T04:33:48;17.40;99.90
37642;DHT22;23486;51.956;5.888;2023-08-24T04:36:13;17.40;99.90
37642;DHT22;23486;51.956;5.888;2023-08-24T04:38:39;17.40;99.90
37642;DHT22;23486;51.956;5.888;2023-08-24T04:41:07;17.40;99.90
37642;DHT22;23486;51.956;5.888;2023-08-24T04:43:33;17.30;99.90
37642;DHT22;23486;51.956;5.888;2023-08-24T04:45:59;17.30;99.90
37642;DHT22;23486;51.956;5.888;2023-08-24T04:48:26;17.30;99.90
37642;DHT22;23486;51.956;5.888;2023-08-24T04:50:52;17.30;99.90
37642;DHT22;23486;51.956;5.888;2023-08-24T04:53:19;17.30;99.90
37642;DHT22;23486;51.956;5.888;2023-08-24T04:55:46;17.30;99.90
37642;DHT22;23486;51.956;5.888;2023-08-24T04:58:12;17.30;99.90
37642;DHT22;23486;51.956;5.888;2023-08-24T05:00:38;17.30;99.90
37642;DHT22;23486;51.956;5.888;2023-08-24T05:03:04;17.30;99.90
37642;DHT22;23486;51.956;5.888;2023-08-24T05:05:34;17.30;99.90
37642;DHT22;23486;51.956;5.888;2023-08-24T05:08:01;17.40;99.90
37642;DHT22;23486;51.956;5.888;2023-08-24T05:10:30;17.40;99.90
37642;DHT22;23486;51.956;5.888;2023-08-24T05:12:56;17.40;99.90
37642;DHT22;23486;51.956;5.888;2023-08-24T05:15:22;17.50;99.90
37642;DHT22;23486;51.956;5.888;2023-08-24T05:17:48;17.40;99.90
37642;DHT22;23486;51.956;5.888;2023-08-24T05:20:14;17.50;99.90
37642;DHT22;23486;51.956;5.888;2023-08-24T05:22:40;17.50;99.90
37642;DHT22;23486;51.956;5.888;2023-08-24T05:25:06;17.50;99.90
37642;DHT22;23486;51.956;5.888;2023-08-24T05:27:32;17.50;99.90
37642;DHT22;23486;51.956;5.888;2023-08-24T05:29:58;17.60;99.90
37642;DHT22;23486;51.956;5.888;2023-08-24T05:32:24;17.60;99.90
37642;DHT22;23486;51.956;5.888;2023-08-24T05:34:49;17.70;99.90
37642;DHT22;23486;51.956;5.888;2023-08-24T05:37:15;17.70;99.90
37642;DHT22;23486;51.956;5.888;2023-08-24T05:39:41;17.70;99.90
37642;DHT22;23486;51.956;5.888;2023-08-24T05:42:08;17.80;99.90
37642;DHT22;23486;51.956;5.888;2023-08-24T05:44:34;17.80;99.90
37642;DHT22;23486;51.956;5.888;2023-08-24T05:47:00;17.80;99.90
37642;DHT22;23486;51.956;5.888;2023-08-24T05:49:25;17.90;99.90
37642;DHT22;23486;51.956;5.888;2023-08-24T05:51:51;17.90;99.90
37642;DHT22;23486;51.956;5.888;2023-08-24T05:54:18;17.90;99.90
37642;DHT22;23486;51.956;5.888;2023-08-24T05:56:44;17.90;99.90
37642;DHT22;23486;51.956;5.888;2023-08-24T05:59:10;18.00;99.90
37642;DHT22;23486;51.956;5.888;2023-08-24T06:01:36;18.00;99.90
37642;DHT22;23486;51.956;5.888;2023-08-24T06:04:05;18.10;99.90
37642;DHT22;23486;51.956;5.888;2023-08-24T06:06:31;18.10;99.90
37642;DHT22;23486;51.956;5.888;2023-08-24T06:08:57;18.10;99.90
37642;DHT22;23486;51.956;5.888;2023-08-24T06:11:22;18.10;99.90
37642;DHT22;23486;51.956;5.888;2023-08-24T06:13:49;18.10;99.90
37642;DHT22;23486;51.956;5.888;2023-08-24T06:16:14;18.20;99.90
37642;DHT22;23486;51.956;5.888;2023-08-24T06:18:40;18.20;99.90
37642;DHT22;23486;51.956;5.888;2023-08-24T06:21:05;18.30;99.90
37642;DHT22;23486;51.956;5.888;2023-08-24T06:23:31;18.20;99.90
37642;DHT22;23486;51.956;5.888;2023-08-24T06:25:57;18.30;99.90
37642;DHT22;23486;51.956;5.888;2023-08-24T06:28:22;18.30;99.90
37642;DHT22;23486;51.956;5.888;2023-08-24T06:30:48;18.40;99.90
37642;DHT22;23486;51.956;5.888;2023-08-24T06:33:17;18.40;99.90
37642;DHT22;23486;51.956;5.888;2023-08-24T06:35:43;18.40;99.90
37642;DHT22;23486;51.956;5.888;2023-08-24T06:38:08;18.50;99.90
37642;DHT22;23486;51.956;5.888;2023-08-24T06:40:34;18.50;99.90
37642;DHT22;23486;51.956;5.888;2023-08-24T06:43:00;18.50;99.90
37642;DHT22;23486;51.956;5.888;2023-08-24T06:45:25;18.60;99.90
37642;DHT22;23486;51.956;5.888;2023-08-24T06:47:54;18.70;99.90
37642;DHT22;23486;51.956;5.888;2023-08-24T06:50:22;18.70;99.90
37642;DHT22;23486;51.956;5.888;2023-08-24T06:52:48;18.70;99.90
37642;DHT22;23486;51.956;5.888;2023-08-24T06:55:14;18.80;99.90
37642;DHT22;23486;51.956;5.888;2023-08-24T06:57:40;18.80;99.90
37642;DHT22;23486;51.956;5.888;2023-08-24T07:00:06;18.90;99.90
37642;DHT22;23486;51.956;5.888;2023-08-24T07:02:35;18.90;99.90
37642;DHT22;23486;51.956;5.888;2023-08-24T07:05:01;19.00;99.90
37642;DHT22;23486;51.956;5.888;2023-08-24T07:07:30;19.00;99.90
37642;DHT22;23486;51.956;5.888;2023-08-24T07:09:55;19.10;99.90
37642;DHT22;23486;51.956;5.888;2023-08-24T07:12:21;19.20;99.90
37642;DHT22;23486;51.956;5.888;2023-08-24T07:14:47;19.20;99.90
37642;DHT22;23486;51.956;5.888;2023-08-24T07:17:12;19.30;99.90
37642;DHT22;23486;51.956;5.888;2023-08-24T07:19:38;19.30;99.90
37642;DHT22;23486;51.956;5.888;2023-08-24T07:22:03;19.40;99.90
37642;DHT22;23486;51.956;5.888;2023-08-24T07:24:29;19.40;99.90
37642;DHT22;23486;51.956;5.888;2023-08-24T07:26:55;19.50;99.90
37642;DHT22;23486;51.956;5.888;2023-08-24T07:29:21;19.50;99.90
37642;DHT22;23486;51.956;5.888;2023-08-24T07:31:47;19.60;99.90
37642;DHT22;23486;51.956;5.888;2023-08-24T07:34:13;19.70;99.90
37642;DHT22;23486;51.956;5.888;2023-08-24T07:36:39;19.70;99.90
37642;DHT22;23486;51.956;5.888;2023-08-24T07:39:05;19.80;99.90
37642;DHT22;23486;51.956;5.888;2023-08-24T07:41:30;19.90;99.90
37642;DHT22;23486;51.956;5.888;2023-08-24T07:43:56;19.90;99.90
37642;DHT22;23486;51.956;5.888;2023-08-24T07:46:22;20.00;99.90
37642;DHT22;23486;51.956;5.888;2023-08-24T07:48:47;20.00;99.90
37642;DHT22;23486;51.956;5.888;2023-08-24T07:51:13;20.10;99.90
37642;DHT22;23486;51.956;5.888;2023-08-24T07:53:38;20.10;99.90
37642;DHT22;23486;51.956;5.888;2023-08-24T07:56:04;20.20;99.90
37642;DHT22;23486;51.956;5.888;2023-08-24T07:58:30;20.30;99.90
37642;DHT22;23486;51.956;5.888;2023-08-24T08:00:58;20.40;99.90
37642;DHT22;23486;51.956;5.888;2023-08-24T08:03:24;20.50;99.90
37642;DHT22;23486;51.956;5.888;2023-08-24T08:05:49;20.50;99.90
37642;DHT22;23486;51.956;5.888;2023-08-24T08:08:15;20.60;99.90
37642;DHT22;23486;51.956;5.888;2023-08-24T08:10:42;20.70;99.90
37642;DHT22;23486;51.956;5.888;2023-08-24T08:13:08;20.70;99.90
37642;DHT22;23486;51.956;5.888;2023-08-24T08:15:36;20.80;99.90
37642;DHT22;23486;51.956;5.888;2023-08-24T08:18:04;20.90;99.90
37642;DHT22;23486;51.956;5.888;2023-08-24T08:20:30;21.00;99.90
37642;DHT22;23486;51.956;5.888;2023-08-24T08:22:55;21.20;99.90
37642;DHT22;23486;51.956;5.888;2023-08-24T08:25:21;21.30;99.90
37642;DHT22;23486;51.956;5.888;2023-08-24T08:27:47;21.40;99.90
37642;DHT22;23486;51.956;5.888;2023-08-24T08:30:13;21.60;99.90
37642;DHT22;23486;51.956;5.888;2023-08-24T08:32:40;21.70;99.90
37642;DHT22;23486;51.956;5.888;2023-08-24T08:35:06;21.80;99.90
37642;DHT22;23486;51.956;5.888;2023-08-24T08:37:32;21.90;99.90
37642;DHT22;23486;51.956;5.888;2023-08-24T08:39:58;22.00;99.90
37642;DHT22;23486;51.956;5.888;2023-08-24T08:42:23;22.20;99.90
37642;DHT22;23486;51.956;5.888;2023-08-24T08:44:49;22.30;99.90
37642;DHT22;23486;51.956;5.888;2023-08-24T08:47:17;22.40;99.90
37642;DHT22;23486;51.956;5.888;2023-08-24T08:49:43;22.50;99.90
37642;DHT22;23486;51.956;5.888;2023-08-24T08:52:10;22.60;99.90
37642;DHT22;23486;51.956;5.888;2023-08-24T08:54:36;22.80;99.90
37642;DHT22;23486;51.956;5.888;2023-08-24T08:57:02;22.80;99.90
37642;DHT22;23486;51.956;5.888;2023-08-24T08:59:29;22.90;99.90
37642;DHT22;23486;51.956;5.888;2023-08-24T09:01:57;23.00;99.90
37642;DHT22;23486;51.956;5.888;2023-08-24T09:04:24;23.10;99.90
37642;DHT22;23486;51.956;5.888;2023-08-24T09:06:50;23.20;99.90
37642;DHT22;23486;51.956;5.888;2023-08-24T09:09:16;23.30;99.90
37642;DHT22;23486;51.956;5.888;2023-08-24T09:11:42;23.40;99.90
37642;DHT22;23486;51.956;5.888;2023-08-24T09:14:12;23.50;99.90
37642;DHT22;23486;51.956;5.888;2023-08-24T09:16:39;23.60;99.90
37642;DHT22;23486;51.956;5.888;2023-08-24T09:19:05;23.70;99.90
37642;DHT22;23486;51.956;5.888;2023-08-24T09:21:37;23.70;99.90
37642;DHT22;23486;51.956;5.888;2023-08-24T09:24:03;23.80;99.90
37642;DHT22;23486;51.956;5.888;2023-08-24T09:26:35;23.80;99.90
37642;DHT22;23486;51.956;5.888;2023-08-24T09:29:11;23.90;99.90
37642;DHT22;23486;51.956;5.888;2023-08-24T09:31:38;23.90;99.90
37642;DHT22;23486;51.956;5.888;2023-08-24T09:34:05;23.90;99.90
37642;DHT22;23486;51.956;5.888;2023-08-24T09:36:36;23.90;99.90
37642;DHT22;23486;51.956;5.888;2023-08-24T09:39:02;23.90;99.90
37642;DHT22;23486;51.956;5.888;2023-08-24T09:41:44;23.90;99.90
37642;DHT22;23486;51.956;5.888;2023-08-24T09:44:10;24.00;99.90
37642;DHT22;23486;51.956;5.888;2023-08-24T09:46:37;24.10;99.90
37642;DHT22;23486;51.956;5.888;2023-08-24T09:49:07;24.10;99.90
37642;DHT22;23486;51.956;5.888;2023-08-24T09:51:34;24.20;99.90
37642;DHT22;23486;51.956;5.888;2023-08-24T09:54:05;24.30;99.90
37642;DHT22;23486;51.956;5.888;2023-08-24T09:56:43;24.40;99.90
37642;DHT22;23486;51.956;5.888;2023-08-24T09:59:14;24.50;99.90
37642;DHT22;23486;51.956;5.888;2023-08-24T10:01:42;24.60;99.90
37642;DHT22;23486;51.956;5.888;2023-08-24T10:04:09;24.70;99.90
37642;DHT22;23486;51.956;5.888;2023-08-24T10:06:38;24.80;99.90
37642;DHT22;23486;51.956;5.888;2023-08-24T10:09:07;24.80;99.90
37642;DHT22;23486;51.956;5.888;2023-08-24T10:11:37;24.90;99.90
37642;DHT22;23486;51.956;5.888;2023-08-24T10:14:12;25.00;99.90
37642;DHT22;23486;51.956;5.888;2023-08-24T10:16:39;25.00;99.90
37642;DHT22;23486;51.956;5.888;2023-08-24T10:19:07;25.10;99.90
37642;DHT22;23486;51.956;5.888;2023-08-24T10:21:33;25.00;99.90
37642;DHT22;23486;51.956;5.888;2023-08-24T10:24:01;25.00;99.90
37642;DHT22;23486;51.956;5.888;2023-08-24T10:26:27;25.00;99.90
37642;DHT22;23486;51.956;5.888;2023-08-24T10:28:53;25.00;99.90
37642;DHT22;23486;51.956;5.888;2023-08-24T10:31:19;24.90;99.90
37642;DHT22;23486;51.956;5.888;2023-08-24T10:33:46;25.00;99.90
37642;DHT22;23486;51.956;5.888;2023-08-24T10:36:15;25.00;99.90
37642;DHT22;23486;51.956;5.888;2023-08-24T10:38:42;24.90;99.90
37642;DHT22;23486;51.956;5.888;2023-08-24T10:41:09;24.90;99.90
37642;DHT22;23486;51.956;5.888;2023-08-24T10:43:38;24.80;99.90
37642;DHT22;23486;51.956;5.888;2023-08-24T10:46:12;24.70;99.90
37642;DHT22;23486;51.956;5.888;2023-08-24T10:53:57;24.50;99.90
37642;DHT22;23486;51.956;5.888;2023-08-24T10:56:30;24.30;99.90
37642;DHT22;23486;51.956;5.888;2023-08-24T10:59:16;24.20;99.90
37642;DHT22;23486;51.956;5.888;2023-08-24T11:01:54;24.10;99.90
37642;DHT22;23486;51.956;5.888;2023-08-24T11:04:20;24.10;99.90
37642;DHT22;23486;51.956;5.888;2023-08-24T11:06:59;24.00;99.90
37642;DHT22;23486;51.956;5.888;2023-08-24T11:09:47;24.00;99.90
37642;DHT22;23486;51.956;5.888;2023-08-24T11:12:13;24.00;99.90
37642;DHT22;23486;51.956;5.888;2023-08-24T11:14:52;24.00;99.90
37642;DHT22;23486;51.956;5.888;2023-08-24T11:17:24;24.00;99.90
37642;DHT22;23486;51.956;5.888;2023-08-24T11:19:53;24.00;99.90
37642;DHT22;23486;51.956;5.888;2023-08-24T11:22:22;24.00;99.90
37642;DHT22;23486;51.956;5.888;2023-08-24T11:24:48;24.10;99.90
37642;DHT22;23486;51.956;5.888;2023-08-24T11:27:14;24.10;99.90
37642;DHT22;23486;51.956;5.888;2023-08-24T11:29:41;24.10;99.90
37642;DHT22;23486;51.956;5.888;2023-08-24T11:32:07;24.10;99.90
37642;DHT22;23486;51.956;5.888;2023-08-24T11:34:34;24.10;99.90
37642;DHT22;23486;51.956;5.888;2023-08-24T11:37:01;24.10;99.90
37642;DHT22;23486;51.956;5.888;2023-08-24T11:39:27;24.30;99.90
37642;DHT22;23486;51.956;5.888;2023-08-24T11:41:58;24.30;99.90
37642;DHT22;23486;51.956;5.888;2023-08-24T11:44:24;24.50;99.90
37642;DHT22;23486;51.956;5.888;2023-08-24T11:46:50;24.60;99.90
37642;DHT22;23486;51.956;5.888;2023-08-24T11:49:16;24.70;99.90
37642;DHT22;23486;51.956;5.888;2023-08-24T11:51:41;24.70;99.90
37642;DHT22;23486;51.956;5.888;2023-08-24T11:54:07;24.80;99.90
37642;DHT22;23486;51.956;5.888;2023-08-24T11:56:41;24.80;99.90
37642;DHT22;23486;51.956;5.888;2023-08-24T11:59:11;24.80;99.90
37642;DHT22;23486;51.956;5.888;2023-08-24T12:01:37;24.80;99.90
37642;DHT22;23486;51.956;5.888;2023-08-24T12:04:05;24.90;99.90
37642;DHT22;23486;51.956;5.888;2023-08-24T12:06:31;25.00;99.90
37642;DHT22;23486;51.956;5.888;2023-08-24T12:08:57;25.10;99.90
37642;DHT22;23486;51.956;5.888;2023-08-24T12:11:22;25.20;99.90
37642;DHT22;23486;51.956;5.888;2023-08-24T12:13:54;25.20;99.90
37642;DHT22;23486;51.956;5.888;2023-08-24T12:16:22;25.30;99.90
37642;DHT22;23486;51.956;5.888;2023-08-24T12:18:55;25.40;99.90
37642;DHT22;23486;51.956;5.888;2023-08-24T12:21:22;25.40;99.90
37642;DHT22;23486;51.956;5.888;2023-08-24T12:26:23;25.50;99.90
37642;DHT22;23486;51.956;5.888;2023-08-24T12:28:50;25.50;99.90
37642;DHT22;23486;51.956;5.888;2023-08-24T12:31:17;25.50;99.90
37642;DHT22;23486;51.956;5.888;2023-08-24T12:33:43;25.40;99.90
37642;DHT22;23486;51.956;5.888;2023-08-24T12:36:09;25.40;99.90
37642;DHT22;23486;51.956;5.888;2023-08-24T12:38:35;25.40;99.90
37642;DHT22;23486;51.956;5.888;2023-08-24T12:41:01;25.40;99.90
37642;DHT22;23486;51.956;5.888;2023-08-24T12:43:27;25.40;99.90
37642;DHT22;23486;51.956;5.888;2023-08-24T12:45:52;25.40;99.90
37642;DHT22;23486;51.956;5.888;2023-08-24T12:48:18;25.30;99.90
37642;DHT22;23486;51.956;5.888;2023-08-24T12:50:44;25.30;99.90
37642;DHT22;23486;51.956;5.888;2023-08-24T12:53:09;25.20;99.90
37642;DHT22;23486;51.956;5.888;2023-08-24T12:55:37;25.10;99.90
37642;DHT22;23486;51.956;5.888;2023-08-24T12:58:03;25.10;99.90
37642;DHT22;23486;51.956;5.888;2023-08-24T13:00:29;25.10;99.90
37642;DHT22;23486;51.956;5.888;2023-08-24T13:02:55;25.20;99.90
37642;DHT22;23486;51.956;5.888;2023-08-24T13:05:21;25.20;99.90
37642;DHT22;23486;51.956;5.888;2023-08-24T13:07:47;25.20;99.90
37642;DHT22;23486;51.956;5.888;2023-08-24T13:10:13;25.30;99.90
37642;DHT22;23486;51.956;5.888;2023-08-24T13:12:39;25.40;99.90
37642;DHT22;23486;51.956;5.888;2023-08-24T13:15:05;25.50;99.90
37642;DHT22;23486;51.956;5.888;2023-08-24T13:17:31;25.70;99.90
37642;DHT22;23486;51.956;5.888;2023-08-24T13:19:57;25.70;99.90
37642;DHT22;23486;51.956;5.888;2023-08-24T13:22:23;25.80;99.90
37642;DHT22;23486;51.956;5.888;2023-08-24T13:24:49;26.00;99.90
37642;DHT22;23486;51.956;5.888;2023-08-24T13:27:14;26.20;99.90
37642;DHT22;23486;51.956;5.888;2023-08-24T13:29:40;26.30;99.90
37642;DHT22;23486;51.956;5.888;2023-08-24T13:32:06;26.50;99.90
37642;DHT22;23486;51.956;5.888;2023-08-24T13:34:32;26.60;99.90
37642;DHT22;23486;51.956;5.888;2023-08-24T13:36:58;26.70;99.90
37642;DHT22;23486;51.956;5.888;2023-08-24T13:39:26;26.80;99.90
37642;DHT22;23486;51.956;5.888;2023-08-24T13:41:54;26.80;99.90
37642;DHT22;23486;51.956;5.888;2023-08-24T13:44:19;26.80;99.90
37642;DHT22;23486;51.956;5.888;2023-08-24T13:46:45;26.90;99.90
37642;DHT22;23486;51.956;5.888;2023-08-24T13:49:11;26.90;99.90
37642;DHT22;23486;51.956;5.888;2023-08-24T13:51:37;26.90;99.90
37642;DHT22;23486;51.956;5.888;2023-08-24T13:54:11;27.00;99.90
37642;DHT22;23486;51.956;5.888;2023-08-24T13:56:37;26.90;99.90
37642;DHT22;23486;51.956;5.888;2023-08-24T13:59:03;26.90;99.90
37642;DHT22;23486;51.956;5.888;2023-08-24T14:01:29;26.80;99.90
37642;DHT22;23486;51.956;5.888;2023-08-24T14:03:54;26.70;99.90
37642;DHT22;23486;51.956;5.888;2023-08-24T14:06:20;26.70;99.90
37642;DHT22;23486;51.956;5.888;2023-08-24T14:08:46;26.70;99.90
37642;DHT22;23486;51.956;5.888;2023-08-24T14:11:11;26.60;99.90
37642;DHT22;23486;51.956;5.888;2023-08-24T14:13:37;26.50;99.90
37642;DHT22;23486;51.956;5.888;2023-08-24T14:16:03;26.40;99.90
37642;DHT22;23486;51.956;5.888;2023-08-24T14:18:29;26.40;99.90
37642;DHT22;23486;51.956;5.888;2023-08-24T14:20:56;26.30;99.90
37642;DHT22;23486;51.956;5.888;2023-08-24T14:23:21;26.30;99.90
37642;DHT22;23486;51.956;5.888;2023-08-24T14:25:47;26.30;99.90
37642;DHT22;23486;51.956;5.888;2023-08-24T14:28:13;26.20;99.90
37642;DHT22;23486;51.956;5.888;2023-08-24T14:30:39;26.20;99.90
37642;DHT22;23486;51.956;5.888;2023-08-24T14:33:05;26.10;99.90
37642;DHT22;23486;51.956;5.888;2023-08-24T14:35:31;26.10;99.90
37642;DHT22;23486;51.956;5.888;2023-08-24T14:37:57;26.00;99.90
37642;DHT22;23486;51.956;5.888;2023-08-24T14:40:23;25.90;99.90
37642;DHT22;23486;51.956;5.888;2023-08-24T14:42:48;25.90;99.90
37642;DHT22;23486;51.956;5.888;2023-08-24T14:45:15;25.80;99.90
37642;DHT22;23486;51.956;5.888;2023-08-24T14:47:41;25.70;99.90
37642;DHT22;23486;51.956;5.888;2023-08-24T14:50:07;25.70;99.90
37642;DHT22;23486;51.956;5.888;2023-08-24T14:52:33;25.70;99.90
37642;DHT22;23486;51.956;5.888;2023-08-24T14:54:58;25.70;99.90
37642;DHT22;23486;51.956;5.888;2023-08-24T14:57:24;25.70;99.90
37642;DHT22;23486;51.956;5.888;2023-08-24T14:59:49;25.70;99.90
37642;DHT22;23486;51.956;5.888;2023-08-24T15:02:15;25.70;99.90
37642;DHT22;23486;51.956;5.888;2023-08-24T15:04:41;25.70;99.90
37642;DHT22;23486;51.956;5.888;2023-08-24T15:07:07;25.60;99.90
37642;DHT22;23486;51.956;5.888;2023-08-24T15:09:32;25.60;99.90
37642;DHT22;23486;51.956;5.888;2023-08-24T15:11:58;25.60;99.90
37642;DHT22;23486;51.956;5.888;2023-08-24T15:14:23;25.60;99.90
37642;DHT22;23486;51.956;5.888;2023-08-24T15:16:49;25.50;99.90
37642;DHT22;23486;51.956;5.888;2023-08-24T15:19:15;25.40;99.90
37642;DHT22;23486;51.956;5.888;2023-08-24T15:21:40;25.40;99.90
37642;DHT22;23486;51.956;5.888;2023-08-24T15:24:06;25.30;99.90
37642;DHT22;23486;51.956;5.888;2023-08-24T15:26:32;25.30;99.90
37642;DHT22;23486;51.956;5.888;2023-08-24T15:29:13;25.30;99.90
37642;DHT22;23486;51.956;5.888;2023-08-24T15:31:41;25.20;99.90
37642;DHT22;23486;51.956;5.888;2023-08-24T15:34:07;25.20;99.90
37642;DHT22;23486;51.956;5.888;2023-08-24T15:36:33;25.30;99.90
37642;DHT22;23486;51.956;5.888;2023-08-24T15:38:59;25.30;99.90